Terminal Aerodrome Forecast
Issued by NWS Pittsburgh, PA

Home | Current Version | Previous Version | Text Only | Print | Product List | Glossary On
Versions: 1 2 3 4 5 6 7 8 9 10 11 12 13 14 15 16 17 18 19 20 21 22 23 24 25
000
FTUS41 KPBZ 241727
TAFPIT
TAF
KPIT 241727Z 2418/2524 22012G22KT P6SM SCT080
     FM242300 22008KT P6SM SCT080
     FM250800 23005KT P6SM SCT025 BKN035
     FM251500 20007KT P6SM BKN040=

USA.gov is the U.S. government's official web portal to all federal, state and local government web resources and services.